createdAt,value
2023-03-30T00:01:15.204Z,4.80
2023-03-30T00:06:21.845Z,5.00
2023-03-30T00:11:23.515Z,4.90
2023-03-30T00:16:23.901Z,5.60
2023-03-30T00:21:23.928Z,4.70
2023-03-30T00:26:23.847Z,5.40
2023-03-30T00:31:22.873Z,4.80
2023-03-30T00:36:22.748Z,4.70
2023-03-30T00:41:22.226Z,5.00
2023-03-30T00:46:23.040Z,4.70
2023-03-30T00:51:23.529Z,4.60
2023-03-30T00:56:28.617Z,4.50
2023-03-30T01:01:29.260Z,4.70
2023-03-30T01:06:32.057Z,5.10
2023-03-30T01:11:31.812Z,4.90
2023-03-30T01:16:41.502Z,3.90
2023-03-30T01:22:14.969Z,5.00
2023-03-30T01:27:46.437Z,4.60
2023-03-30T01:39:35.561Z,4.40
2023-03-30T01:44:51.904Z,4.90
2023-03-30T01:50:03.062Z,4.70
2023-03-30T01:55:11.908Z,4.50
2023-03-30T02:00:17.982Z,5.20
2023-03-30T02:05:21.181Z,5.00
2023-03-30T02:10:25.801Z,5.00
2023-03-30T02:15:30.596Z,5.00
2023-03-30T02:20:31.057Z,5.60
2023-03-30T02:25:31.418Z,5.00
2023-03-30T02:30:40.605Z,4.40
2023-03-30T02:36:00.138Z,4.60
2023-03-30T02:41:13.039Z,3.80
2023-03-30T02:46:31.509Z,5.00
2023-03-30T02:51:44.833Z,3.60
2023-03-30T02:56:58.423Z,3.60
2023-03-30T03:02:05.705Z,4.00
2023-03-30T03:07:05.426Z,3.70
2023-03-30T03:12:04.835Z,4.10
2023-03-30T03:17:09.657Z,3.70
2023-03-30T03:22:17.608Z,4.30
2023-03-30T03:27:17.066Z,3.50
2023-03-30T03:32:37.268Z,3.70
2023-03-30T03:37:37.341Z,4.60
2023-03-30T03:42:37.958Z,3.50
2023-03-30T03:47:45.446Z,4.50
2023-03-30T03:52:44.944Z,3.70
2023-03-30T03:57:45.550Z,4.00
2023-03-30T04:02:45.258Z,4.70
2023-03-30T04:07:46.535Z,4.50
2023-03-30T04:12:49.023Z,5.20
2023-03-30T04:18:16.159Z,4.60
2023-03-30T04:23:26.176Z,4.80
2023-03-30T04:28:47.224Z,5.10
2023-03-30T04:34:02.923Z,5.80
2023-03-30T04:39:06.728Z,5.10
2023-03-30T04:44:29.655Z,5.50
2023-03-30T04:49:49.271Z,4.50
2023-03-30T04:55:08.995Z,4.40
2023-03-30T05:00:29.256Z,4.90
2023-03-30T05:05:47.302Z,5.30
2023-03-30T05:11:23.194Z,5.60
2023-03-30T05:16:33.983Z,5.20
2023-03-30T05:21:52.318Z,5.90
2023-03-30T05:27:11.609Z,5.70
2023-03-30T05:32:32.174Z,5.40
2023-03-30T05:37:57.235Z,5.90
2023-03-30T05:43:15.669Z,5.70
2023-03-30T05:48:33.461Z,4.90
2023-03-30T05:53:39.056Z,5.40
2023-03-30T05:58:57.012Z,5.50
2023-03-30T06:04:16.631Z,5.30
2023-03-30T06:09:19.146Z,6.20
2023-03-30T06:14:18.320Z,5.60
2023-03-30T06:19:29.614Z,5.90
2023-03-30T06:24:29.368Z,6.70
2023-03-30T06:29:31.632Z,6.00
2023-03-30T06:34:31.642Z,6.00
2023-03-30T06:39:31.544Z,6.60
2023-03-30T06:44:31.140Z,7.80
2023-03-30T06:49:33.819Z,5.90
2023-03-30T06:54:45.241Z,6.60
2023-03-30T06:59:44.719Z,6.70
2023-03-30T07:04:53.123Z,6.30
2023-03-30T07:10:15.000Z,6.40
2023-03-30T07:15:18.387Z,6.70
2023-03-30T07:20:21.001Z,6.60
2023-03-30T07:25:38.170Z,6.20
2023-03-30T07:30:45.378Z,6.50
2023-03-30T07:35:50.173Z,6.60
2023-03-30T07:40:53.409Z,6.40
2023-03-30T07:45:54.051Z,6.00
2023-03-30T07:51:14.385Z,6.50
2023-03-30T07:56:23.755Z,5.90
2023-03-30T08:01:25.743Z,6.40
2023-03-30T08:06:27.260Z,6.50
2023-03-30T08:11:28.859Z,6.50
2023-03-30T08:16:29.713Z,6.10
2023-03-30T08:21:29.581Z,6.20
2023-03-30T08:26:30.945Z,5.70
2023-03-30T08:31:32.968Z,6.70
2023-03-30T08:36:32.373Z,5.70
2023-03-30T08:42:10.035Z,6.20
2023-03-30T08:47:16.335Z,6.60
2023-03-30T08:52:24.749Z,7.60
2023-03-30T08:57:39.934Z,6.70
2023-03-30T09:02:47.279Z,6.60
2023-03-30T09:07:59.131Z,6.20
2023-03-30T09:13:02.179Z,7.40
2023-03-30T09:18:11.406Z,7.00
2023-03-30T09:23:16.614Z,6.60
2023-03-30T09:28:25.070Z,6.10
2023-03-30T09:33:43.422Z,6.20
2023-03-30T09:38:43.650Z,5.90
2023-03-30T09:43:47.781Z,7.20
2023-03-30T09:48:49.297Z,6.30
2023-03-30T09:53:52.338Z,5.40
2023-03-30T09:58:51.850Z,5.90
2023-03-30T10:04:12.875Z,6.20
2023-03-30T10:09:16.777Z,7.10
2023-03-30T10:14:36.378Z,7.10
2023-03-30T10:19:47.783Z,6.30
2023-03-30T10:24:57.477Z,7.30
2023-03-30T10:29:57.022Z,6.80
2023-03-30T10:35:04.750Z,7.20
2023-03-30T10:40:12.742Z,7.10
2023-03-30T10:45:24.209Z,7.20
2023-03-30T10:50:36.735Z,7.40
2023-03-30T10:55:44.468Z,7.30
2023-03-30T11:01:00.915Z,7.20
2023-03-30T11:06:11.279Z,7.40
2023-03-30T11:11:17.477Z,7.20
2023-03-30T11:16:23.027Z,6.90
2023-03-30T11:21:30.445Z,6.50
2023-03-30T11:26:39.284Z,7.20
2023-03-30T11:32:00.687Z,6.70
2023-03-30T11:37:14.736Z,6.00
2023-03-30T11:42:23.442Z,6.00
2023-03-30T11:47:53.421Z,7.00
2023-03-30T11:53:13.084Z,6.70
2023-03-30T11:58:28.463Z,6.00
2023-03-30T12:03:44.006Z,7.20
2023-03-30T12:09:02.884Z,7.20
2023-03-30T12:14:04.012Z,6.60
2023-03-30T12:19:18.590Z,6.20
2023-03-30T12:24:24.896Z,5.80
2023-03-30T12:34:30.747Z,5.30
2023-03-30T12:39:37.757Z,5.50
2023-03-30T12:44:49.657Z,6.20
2023-03-30T12:50:13.563Z,6.00
2023-03-30T12:55:42.130Z,6.50
2023-03-30T13:00:58.073Z,5.00
2023-03-30T13:05:59.629Z,6.00
2023-03-30T13:11:16.958Z,5.80
2023-03-30T13:16:16.465Z,5.40
2023-03-30T13:21:29.203Z,5.50
2023-03-30T13:26:43.929Z,4.70
2023-03-30T13:32:21.656Z,4.90
2023-03-30T13:37:29.377Z,5.20
2023-03-30T13:42:51.228Z,5.30
2023-03-30T13:48:07.012Z,4.40
2023-03-30T13:53:12.463Z,5.00
2023-03-30T13:58:20.311Z,4.90
2023-03-30T14:03:49.275Z,4.20
2023-03-30T14:08:52.579Z,3.80
2023-03-30T14:13:54.261Z,4.50
2023-03-30T14:19:06.370Z,4.80
2023-03-30T14:24:11.398Z,3.90
2023-03-30T14:29:30.280Z,4.10
2023-03-30T14:34:34.513Z,4.20
2023-03-30T14:39:40.391Z,3.70
2023-03-30T14:44:44.034Z,3.70
2023-03-30T14:49:47.616Z,4.10
2023-03-30T14:55:05.164Z,3.60
2023-03-30T15:00:20.819Z,2.10
2023-03-30T15:05:24.550Z,2.50
2023-03-30T15:10:33.483Z,2.70
2023-03-30T15:15:35.450Z,2.70
2023-03-30T15:20:36.110Z,2.60
2023-03-30T15:25:38.596Z,2.80
2023-03-30T15:30:44.152Z,3.00
2023-03-30T15:35:46.263Z,3.00
2023-03-30T15:40:47.543Z,3.20
2023-03-30T15:45:52.772Z,2.60
2023-03-30T15:51:03.861Z,3.30
2023-03-30T15:56:04.785Z,2.30
2023-03-30T16:01:08.022Z,3.70
2023-03-30T16:06:15.092Z,3.00
2023-03-30T16:11:17.230Z,3.50
2023-03-30T16:16:18.684Z,3.80
2023-03-30T16:21:18.974Z,3.40
2023-03-30T16:26:18.461Z,3.50
2023-03-30T16:31:23.432Z,3.60
2023-03-30T16:36:25.797Z,3.80
2023-03-30T16:41:26.770Z,3.60
2023-03-30T16:46:26.553Z,3.30
2023-03-30T16:51:27.156Z,3.50
2023-03-30T16:56:26.846Z,4.00
2023-03-30T17:01:27.132Z,4.00
2023-03-30T17:06:27.619Z,4.60
2023-03-30T17:11:28.076Z,4.50
2023-03-30T17:16:29.421Z,4.90
2023-03-30T17:21:29.462Z,3.90
2023-03-30T17:26:29.163Z,4.50
2023-03-30T17:31:27.800Z,4.30
2023-03-30T17:36:30.030Z,4.90
2023-03-30T17:41:29.343Z,5.20
2023-03-30T17:46:29.304Z,3.40
2023-03-30T17:51:27.936Z,5.30
2023-03-30T17:56:50.216Z,5.50
2023-03-30T18:01:50.540Z,4.90
2023-03-30T18:06:55.595Z,5.60
2023-03-30T18:12:01.421Z,5.20
2023-03-30T18:17:07.889Z,5.10
2023-03-30T18:22:11.244Z,5.00
2023-03-30T18:27:17.235Z,4.90
2023-03-30T18:32:20.972Z,5.30
2023-03-30T18:37:22.645Z,5.30
2023-03-30T18:42:24.769Z,5.60
2023-03-30T18:47:26.664Z,5.10
2023-03-30T18:52:28.030Z,5.60
2023-03-30T18:57:28.865Z,6.40
2023-03-30T19:02:31.880Z,6.70
2023-03-30T19:07:33.871Z,5.50
2023-03-30T19:12:34.286Z,6.40
2023-03-30T19:17:35.247Z,6.40
2023-03-30T19:22:46.045Z,6.50
2023-03-30T19:27:59.521Z,5.10
2023-03-30T19:33:05.974Z,6.20
2023-03-30T19:38:11.963Z,6.60
2023-03-30T19:43:12.994Z,6.60
2023-03-30T19:53:29.570Z,6.30
2023-03-30T19:58:34.563Z,6.60
2023-03-30T20:03:36.314Z,6.40
2023-03-30T20:08:38.432Z,6.90
2023-03-30T20:13:45.594Z,7.00
2023-03-30T20:18:54.912Z,6.90
2023-03-30T20:23:56.134Z,7.70
2023-03-30T20:28:55.294Z,6.50
2023-03-30T20:33:55.255Z,7.50
2023-03-30T20:38:59.499Z,6.50
2023-03-30T20:43:58.166Z,7.10
2023-03-30T20:49:02.089Z,7.00
2023-03-30T20:54:02.073Z,6.80
2023-03-30T20:59:02.632Z,8.10
2023-03-30T21:04:04.290Z,7.00
2023-03-30T21:09:07.248Z,7.80
2023-03-30T21:14:07.704Z,7.70
2023-03-30T21:19:07.286Z,8.20
2023-03-30T21:24:08.940Z,7.30
2023-03-30T21:29:13.345Z,6.70
2023-03-30T21:34:13.770Z,8.00
2023-03-30T21:39:13.090Z,7.60
2023-03-30T21:44:12.054Z,8.00
2023-03-30T21:49:12.813Z,7.80
2023-03-30T21:54:12.509Z,8.20
2023-03-30T21:59:11.919Z,7.60
2023-03-30T22:04:11.119Z,8.80
2023-03-30T22:09:10.629Z,7.50
2023-03-30T22:14:10.866Z,8.10
2023-03-30T22:19:09.677Z,7.90
2023-03-30T22:24:12.586Z,6.90
2023-03-30T22:29:11.618Z,8.10
2023-03-30T22:34:10.928Z,7.40
2023-03-30T22:39:11.348Z,7.70
2023-03-30T22:44:11.402Z,7.10
2023-03-30T22:49:11.351Z,8.40
2023-03-30T22:54:11.292Z,7.20
2023-03-30T22:59:10.306Z,7.60
2023-03-30T23:04:12.863Z,5.50
2023-03-30T23:09:13.713Z,3.10
2023-03-30T23:14:13.616Z,5.80
2023-03-30T23:19:13.107Z,5.00
2023-03-30T23:24:14.951Z,6.50
2023-03-30T23:29:14.287Z,4.60
2023-03-30T23:34:17.016Z,6.60
2023-03-30T23:39:16.563Z,7.00
2023-03-30T23:44:16.561Z,9.60
2023-03-30T23:49:17.801Z,8.00
2023-03-30T23:54:18.452Z,8.90
2023-03-30T23:59:19.120Z,6.80
